sensor_id;sensor_type;location;lat;lon;timestamp;temperature;humidity
48579;DHT22;34357;51.948;6.132;2024-02-28T00:01:50;2.20;94.30
48579;DHT22;34357;51.948;6.132;2024-02-28T00:04:16;2.30;94.40
48579;DHT22;34357;51.948;6.132;2024-02-28T00:06:42;2.30;94.30
48579;DHT22;34357;51.948;6.132;2024-02-28T00:09:07;2.20;94.20
48579;DHT22;34357;51.948;6.132;2024-02-28T00:11:33;2.30;94.30
48579;DHT22;34357;51.948;6.132;2024-02-28T00:13:59;2.20;94.30
48579;DHT22;34357;51.948;6.132;2024-02-28T00:16:28;2.20;94.30
48579;DHT22;34357;51.948;6.132;2024-02-28T00:18:53;2.20;94.40
48579;DHT22;34357;51.948;6.132;2024-02-28T00:21:19;2.20;94.40
48579;DHT22;34357;51.948;6.132;2024-02-28T00:23:45;2.20;94.50
48579;DHT22;34357;51.948;6.132;2024-02-28T00:26:12;2.20;94.50
48579;DHT22;34357;51.948;6.132;2024-02-28T00:28:37;2.20;94.50
48579;DHT22;34357;51.948;6.132;2024-02-28T00:31:03;2.20;94.60
48579;DHT22;34357;51.948;6.132;2024-02-28T00:33:29;2.10;94.60
48579;DHT22;34357;51.948;6.132;2024-02-28T00:35:55;2.00;94.60
48579;DHT22;34357;51.948;6.132;2024-02-28T00:38:20;1.90;94.70
48579;DHT22;34357;51.948;6.132;2024-02-28T00:40:46;1.90;94.70
48579;DHT22;34357;51.948;6.132;2024-02-28T00:43:12;1.90;94.80
48579;DHT22;34357;51.948;6.132;2024-02-28T00:45:38;2.00;94.80
48579;DHT22;34357;51.948;6.132;2024-02-28T00:48:04;1.90;94.80
48579;DHT22;34357;51.948;6.132;2024-02-28T00:50:29;1.90;94.80
48579;DHT22;34357;51.948;6.132;2024-02-28T00:52:55;2.00;94.80
48579;DHT22;34357;51.948;6.132;2024-02-28T00:55:21;2.10;94.90
48579;DHT22;34357;51.948;6.132;2024-02-28T00:57:47;2.00;94.70
48579;DHT22;34357;51.948;6.132;2024-02-28T01:00:12;2.00;94.80
48579;DHT22;34357;51.948;6.132;2024-02-28T01:02:39;1.90;94.80
48579;DHT22;34357;51.948;6.132;2024-02-28T01:05:05;2.00;94.90
48579;DHT22;34357;51.948;6.132;2024-02-28T01:07:31;2.00;94.80
48579;DHT22;34357;51.948;6.132;2024-02-28T01:09:57;2.10;94.90
48579;DHT22;34357;51.948;6.132;2024-02-28T01:12:22;2.00;94.80
48579;DHT22;34357;51.948;6.132;2024-02-28T01:14:48;2.00;94.80
48579;DHT22;34357;51.948;6.132;2024-02-28T01:17:14;2.00;94.90
48579;DHT22;34357;51.948;6.132;2024-02-28T01:19:39;2.00;94.90
48579;DHT22;34357;51.948;6.132;2024-02-28T01:22:05;1.90;94.90
48579;DHT22;34357;51.948;6.132;2024-02-28T01:24:31;1.90;95.00
48579;DHT22;34357;51.948;6.132;2024-02-28T01:26:59;1.90;95.00
48579;DHT22;34357;51.948;6.132;2024-02-28T01:29:24;1.90;95.00
48579;DHT22;34357;51.948;6.132;2024-02-28T01:31:50;1.90;95.00
48579;DHT22;34357;51.948;6.132;2024-02-28T01:34:17;1.90;95.10
48579;DHT22;34357;51.948;6.132;2024-02-28T01:36:43;1.90;95.10
48579;DHT22;34357;51.948;6.132;2024-02-28T01:39:09;1.90;95.00
48579;DHT22;34357;51.948;6.132;2024-02-28T01:41:34;1.90;95.10
48579;DHT22;34357;51.948;6.132;2024-02-28T01:44:00;2.00;95.00
48579;DHT22;34357;51.948;6.132;2024-02-28T01:46:27;1.90;95.00
48579;DHT22;34357;51.948;6.132;2024-02-28T01:48:54;1.90;95.10
48579;DHT22;34357;51.948;6.132;2024-02-28T01:51:22;1.90;95.10
48579;DHT22;34357;51.948;6.132;2024-02-28T01:53:48;1.90;95.10
48579;DHT22;34357;51.948;6.132;2024-02-28T01:56:16;1.90;95.10
48579;DHT22;34357;51.948;6.132;2024-02-28T01:58:44;2.00;95.10
48579;DHT22;34357;51.948;6.132;2024-02-28T02:01:12;1.90;95.10
48579;DHT22;34357;51.948;6.132;2024-02-28T02:03:39;1.90;95.10
48579;DHT22;34357;51.948;6.132;2024-02-28T02:06:05;2.00;95.10
48579;DHT22;34357;51.948;6.132;2024-02-28T02:08:32;2.00;95.00
48579;DHT22;34357;51.948;6.132;2024-02-28T02:10:58;2.00;95.00
48579;DHT22;34357;51.948;6.132;2024-02-28T02:13:24;2.00;95.10
48579;DHT22;34357;51.948;6.132;2024-02-28T02:15:50;2.00;95.10
48579;DHT22;34357;51.948;6.132;2024-02-28T02:18:16;2.00;94.90
48579;DHT22;34357;51.948;6.132;2024-02-28T02:20:48;2.10;95.10
48579;DHT22;34357;51.948;6.132;2024-02-28T02:23:15;2.10;95.00
48579;DHT22;34357;51.948;6.132;2024-02-28T02:25:47;2.10;95.00
48579;DHT22;34357;51.948;6.132;2024-02-28T02:28:14;2.10;95.00
48579;DHT22;34357;51.948;6.132;2024-02-28T02:30:40;2.10;94.90
48579;DHT22;34357;51.948;6.132;2024-02-28T02:33:07;2.20;95.00
48579;DHT22;34357;51.948;6.132;2024-02-28T02:35:34;2.20;94.90
48579;DHT22;34357;51.948;6.132;2024-02-28T02:38:00;2.20;95.00
48579;DHT22;34357;51.948;6.132;2024-02-28T02:40:26;2.20;94.90
48579;DHT22;34357;51.948;6.132;2024-02-28T02:42:51;2.20;95.00
48579;DHT22;34357;51.948;6.132;2024-02-28T02:45:17;2.20;95.00
48579;DHT22;34357;51.948;6.132;2024-02-28T02:47:43;2.20;94.90
48579;DHT22;34357;51.948;6.132;2024-02-28T02:50:12;2.20;94.90
48579;DHT22;34357;51.948;6.132;2024-02-28T02:52:38;2.20;94.90
48579;DHT22;34357;51.948;6.132;2024-02-28T02:55:04;2.20;94.90
48579;DHT22;34357;51.948;6.132;2024-02-28T02:57:31;2.20;94.90
48579;DHT22;34357;51.948;6.132;2024-02-28T02:59:57;2.10;94.80
48579;DHT22;34357;51.948;6.132;2024-02-28T03:02:23;2.10;94.90
48579;DHT22;34357;51.948;6.132;2024-02-28T03:04:48;2.10;94.90
48579;DHT22;34357;51.948;6.132;2024-02-28T03:07:14;2.10;95.00
48579;DHT22;34357;51.948;6.132;2024-02-28T03:09:40;1.90;95.00
48579;DHT22;34357;51.948;6.132;2024-02-28T03:12:06;1.90;95.00
48579;DHT22;34357;51.948;6.132;2024-02-28T03:14:34;2.00;95.10
48579;DHT22;34357;51.948;6.132;2024-02-28T03:17:00;1.90;95.00
48579;DHT22;34357;51.948;6.132;2024-02-28T03:19:25;1.90;95.00
48579;DHT22;34357;51.948;6.132;2024-02-28T03:21:51;2.00;95.10
48579;DHT22;34357;51.948;6.132;2024-02-28T03:24:17;2.00;94.90
48579;DHT22;34357;51.948;6.132;2024-02-28T03:26:42;1.90;95.00
48579;DHT22;34357;51.948;6.132;2024-02-28T03:29:08;1.90;95.10
48579;DHT22;34357;51.948;6.132;2024-02-28T03:31:34;1.90;95.10
48579;DHT22;34357;51.948;6.132;2024-02-28T03:34:00;1.90;95.10
48579;DHT22;34357;51.948;6.132;2024-02-28T03:36:27;2.00;95.10
48579;DHT22;34357;51.948;6.132;2024-02-28T03:38:52;2.00;95.00
48579;DHT22;34357;51.948;6.132;2024-02-28T03:41:18;1.90;95.00
48579;DHT22;34357;51.948;6.132;2024-02-28T03:43:44;1.80;95.00
48579;DHT22;34357;51.948;6.132;2024-02-28T03:46:09;1.90;95.10
48579;DHT22;34357;51.948;6.132;2024-02-28T03:48:35;1.90;95.00
48579;DHT22;34357;51.948;6.132;2024-02-28T03:51:01;1.90;95.10
48579;DHT22;34357;51.948;6.132;2024-02-28T03:53:26;1.90;95.00
48579;DHT22;34357;51.948;6.132;2024-02-28T03:55:52;1.90;95.00
48579;DHT22;34357;51.948;6.132;2024-02-28T03:58:18;1.90;95.10
48579;DHT22;34357;51.948;6.132;2024-02-28T04:00:43;1.80;95.10
48579;DHT22;34357;51.948;6.132;2024-02-28T04:03:10;1.80;95.20
48579;DHT22;34357;51.948;6.132;2024-02-28T04:05:35;1.70;95.10
48579;DHT22;34357;51.948;6.132;2024-02-28T04:08:01;1.70;95.20
48579;DHT22;34357;51.948;6.132;2024-02-28T04:10:27;1.60;95.20
48579;DHT22;34357;51.948;6.132;2024-02-28T04:12:53;1.70;95.30
48579;DHT22;34357;51.948;6.132;2024-02-28T04:15:18;1.70;95.30
48579;DHT22;34357;51.948;6.132;2024-02-28T04:17:44;1.50;95.20
48579;DHT22;34357;51.948;6.132;2024-02-28T04:20:11;1.40;95.30
48579;DHT22;34357;51.948;6.132;2024-02-28T04:22:37;1.50;95.30
48579;DHT22;34357;51.948;6.132;2024-02-28T04:25:07;1.40;95.30
48579;DHT22;34357;51.948;6.132;2024-02-28T04:27:34;1.30;95.40
48579;DHT22;34357;51.948;6.132;2024-02-28T04:29:59;1.30;95.40
48579;DHT22;34357;51.948;6.132;2024-02-28T04:32:25;1.30;95.40
48579;DHT22;34357;51.948;6.132;2024-02-28T04:34:51;1.30;95.40
48579;DHT22;34357;51.948;6.132;2024-02-28T04:37:17;1.30;95.40
48579;DHT22;34357;51.948;6.132;2024-02-28T04:39:43;1.30;95.50
48579;DHT22;34357;51.948;6.132;2024-02-28T04:42:08;1.20;95.50
48579;DHT22;34357;51.948;6.132;2024-02-28T04:44:34;1.10;95.50
48579;DHT22;34357;51.948;6.132;2024-02-28T04:47:01;1.10;95.50
48579;DHT22;34357;51.948;6.132;2024-02-28T04:49:27;1.00;95.50
48579;DHT22;34357;51.948;6.132;2024-02-28T04:51:52;1.10;95.50
48579;DHT22;34357;51.948;6.132;2024-02-28T04:54:18;1.10;95.40
48579;DHT22;34357;51.948;6.132;2024-02-28T04:56:44;1.10;95.50
48579;DHT22;34357;51.948;6.132;2024-02-28T04:59:13;1.10;95.50
48579;DHT22;34357;51.948;6.132;2024-02-28T05:01:39;1.20;95.60
48579;DHT22;34357;51.948;6.132;2024-02-28T05:04:06;1.10;95.50
48579;DHT22;34357;51.948;6.132;2024-02-28T05:06:32;1.10;95.50
48579;DHT22;34357;51.948;6.132;2024-02-28T05:08:58;1.00;95.50
48579;DHT22;34357;51.948;6.132;2024-02-28T05:11:23;1.00;95.60
48579;DHT22;34357;51.948;6.132;2024-02-28T05:13:49;1.10;95.60
48579;DHT22;34357;51.948;6.132;2024-02-28T05:16:15;1.00;95.60
48579;DHT22;34357;51.948;6.132;2024-02-28T05:18:41;1.00;95.70
48579;DHT22;34357;51.948;6.132;2024-02-28T05:21:07;0.90;95.70
48579;DHT22;34357;51.948;6.132;2024-02-28T05:23:33;0.90;95.70
48579;DHT22;34357;51.948;6.132;2024-02-28T05:25:59;1.00;95.70
48579;DHT22;34357;51.948;6.132;2024-02-28T05:28:29;0.90;95.70
48579;DHT22;34357;51.948;6.132;2024-02-28T05:30:56;0.90;95.80
48579;DHT22;34357;51.948;6.132;2024-02-28T05:33:22;0.90;95.80
48579;DHT22;34357;51.948;6.132;2024-02-28T05:35:48;0.90;95.80
48579;DHT22;34357;51.948;6.132;2024-02-28T05:38:14;0.80;95.70
48579;DHT22;34357;51.948;6.132;2024-02-28T05:40:41;0.80;95.80
48579;DHT22;34357;51.948;6.132;2024-02-28T05:43:07;0.80;95.80
48579;DHT22;34357;51.948;6.132;2024-02-28T05:45:33;0.80;95.80
48579;DHT22;34357;51.948;6.132;2024-02-28T05:47:59;0.90;95.80
48579;DHT22;34357;51.948;6.132;2024-02-28T05:50:25;0.90;95.80
48579;DHT22;34357;51.948;6.132;2024-02-28T05:52:50;0.90;95.80
48579;DHT22;34357;51.948;6.132;2024-02-28T05:55:17;0.90;95.80
48579;DHT22;34357;51.948;6.132;2024-02-28T05:57:43;0.80;95.80
48579;DHT22;34357;51.948;6.132;2024-02-28T06:00:09;0.90;95.90
48579;DHT22;34357;51.948;6.132;2024-02-28T06:02:39;0.80;95.90
48579;DHT22;34357;51.948;6.132;2024-02-28T06:05:06;0.80;95.80
48579;DHT22;34357;51.948;6.132;2024-02-28T06:07:32;0.80;95.90
48579;DHT22;34357;51.948;6.132;2024-02-28T06:09:57;0.70;95.90
48579;DHT22;34357;51.948;6.132;2024-02-28T06:12:23;0.80;95.90
48579;DHT22;34357;51.948;6.132;2024-02-28T06:14:49;0.70;95.80
48579;DHT22;34357;51.948;6.132;2024-02-28T06:17:15;0.70;95.90
48579;DHT22;34357;51.948;6.132;2024-02-28T06:19:41;0.80;95.90
48579;DHT22;34357;51.948;6.132;2024-02-28T06:22:06;0.70;95.90
48579;DHT22;34357;51.948;6.132;2024-02-28T06:24:36;0.70;95.90
48579;DHT22;34357;51.948;6.132;2024-02-28T06:27:01;0.70;95.90
48579;DHT22;34357;51.948;6.132;2024-02-28T06:29:27;0.60;95.90
48579;DHT22;34357;51.948;6.132;2024-02-28T06:31:53;0.60;95.90
48579;DHT22;34357;51.948;6.132;2024-02-28T06:34:21;0.60;95.90
48579;DHT22;34357;51.948;6.132;2024-02-28T06:36:48;0.60;95.90
48579;DHT22;34357;51.948;6.132;2024-02-28T06:39:13;0.60;95.90
48579;DHT22;34357;51.948;6.132;2024-02-28T06:41:40;0.60;95.90
48579;DHT22;34357;51.948;6.132;2024-02-28T06:44:06;0.60;95.90
48579;DHT22;34357;51.948;6.132;2024-02-28T06:46:33;0.50;95.90
48579;DHT22;34357;51.948;6.132;2024-02-28T06:48:59;0.50;95.90
48579;DHT22;34357;51.948;6.132;2024-02-28T06:51:24;0.60;95.90
48579;DHT22;34357;51.948;6.132;2024-02-28T06:53:50;0.60;96.00
48579;DHT22;34357;51.948;6.132;2024-02-28T06:56:16;0.60;95.90
48579;DHT22;34357;51.948;6.132;2024-02-28T06:58:41;0.60;95.90
48579;DHT22;34357;51.948;6.132;2024-02-28T07:01:07;0.70;95.90
48579;DHT22;34357;51.948;6.132;2024-02-28T07:03:33;0.70;96.00
48579;DHT22;34357;51.948;6.132;2024-02-28T07:05:58;0.80;96.00
48579;DHT22;34357;51.948;6.132;2024-02-28T07:08:24;0.90;96.00
48579;DHT22;34357;51.948;6.132;2024-02-28T07:10:50;0.90;96.00
48579;DHT22;34357;51.948;6.132;2024-02-28T07:13:20;1.00;95.90
48579;DHT22;34357;51.948;6.132;2024-02-28T07:15:47;1.10;95.90
48579;DHT22;34357;51.948;6.132;2024-02-28T07:18:13;1.10;95.90
48579;DHT22;34357;51.948;6.132;2024-02-28T07:20:38;1.20;95.90
48579;DHT22;34357;51.948;6.132;2024-02-28T07:23:04;1.20;95.90
48579;DHT22;34357;51.948;6.132;2024-02-28T07:25:30;1.20;95.90
48579;DHT22;34357;51.948;6.132;2024-02-28T07:27:58;1.30;95.90
48579;DHT22;34357;51.948;6.132;2024-02-28T07:30:28;1.30;95.80
48579;DHT22;34357;51.948;6.132;2024-02-28T07:32:54;1.50;95.90
48579;DHT22;34357;51.948;6.132;2024-02-28T07:35:20;1.50;95.80
48579;DHT22;34357;51.948;6.132;2024-02-28T07:37:46;1.50;95.80
48579;DHT22;34357;51.948;6.132;2024-02-28T07:40:12;1.60;95.70
48579;DHT22;34357;51.948;6.132;2024-02-28T07:42:38;1.70;95.70
48579;DHT22;34357;51.948;6.132;2024-02-28T07:45:04;1.70;95.60
48579;DHT22;34357;51.948;6.132;2024-02-28T07:47:30;1.60;95.50
48579;DHT22;34357;51.948;6.132;2024-02-28T07:49:56;1.80;95.50
48579;DHT22;34357;51.948;6.132;2024-02-28T07:52:22;1.80;95.50
48579;DHT22;34357;51.948;6.132;2024-02-28T07:54:47;1.80;95.50
48579;DHT22;34357;51.948;6.132;2024-02-28T07:57:14;1.90;95.30
48579;DHT22;34357;51.948;6.132;2024-02-28T07:59:41;1.90;95.30
48579;DHT22;34357;51.948;6.132;2024-02-28T08:02:07;2.10;95.20
48579;DHT22;34357;51.948;6.132;2024-02-28T08:04:33;2.00;95.10
48579;DHT22;34357;51.948;6.132;2024-02-28T08:07:00;2.10;95.10
48579;DHT22;34357;51.948;6.132;2024-02-28T08:09:25;2.20;95.00
48579;DHT22;34357;51.948;6.132;2024-02-28T08:11:51;2.30;94.90
48579;DHT22;34357;51.948;6.132;2024-02-28T08:14:17;2.60;94.80
48579;DHT22;34357;51.948;6.132;2024-02-28T08:16:44;2.60;94.60
48579;DHT22;34357;51.948;6.132;2024-02-28T08:19:10;2.80;94.40
48579;DHT22;34357;51.948;6.132;2024-02-28T08:21:35;2.90;94.30
48579;DHT22;34357;51.948;6.132;2024-02-28T08:24:01;2.90;94.00
48579;DHT22;34357;51.948;6.132;2024-02-28T08:26:30;3.00;93.70
48579;DHT22;34357;51.948;6.132;2024-02-28T08:28:56;3.00;93.40
48579;DHT22;34357;51.948;6.132;2024-02-28T08:31:22;2.90;93.00
48579;DHT22;34357;51.948;6.132;2024-02-28T08:33:48;2.90;92.90
48579;DHT22;34357;51.948;6.132;2024-02-28T08:36:14;2.90;92.60
48579;DHT22;34357;51.948;6.132;2024-02-28T08:38:41;2.90;92.60
48579;DHT22;34357;51.948;6.132;2024-02-28T08:41:07;2.90;92.40
48579;DHT22;34357;51.948;6.132;2024-02-28T08:43:42;3.00;92.40
48579;DHT22;34357;51.948;6.132;2024-02-28T08:46:08;3.10;92.40
48579;DHT22;34357;51.948;6.132;2024-02-28T08:48:34;3.40;92.20
48579;DHT22;34357;51.948;6.132;2024-02-28T08:51:00;3.40;91.90
48579;DHT22;34357;51.948;6.132;2024-02-28T08:53:26;3.30;91.60
48579;DHT22;34357;51.948;6.132;2024-02-28T08:55:52;3.40;91.30
48579;DHT22;34357;51.948;6.132;2024-02-28T08:58:17;3.30;91.30
48579;DHT22;34357;51.948;6.132;2024-02-28T09:00:43;3.20;91.30
48579;DHT22;34357;51.948;6.132;2024-02-28T09:03:09;3.20;91.40
48579;DHT22;34357;51.948;6.132;2024-02-28T09:05:34;3.20;91.50
48579;DHT22;34357;51.948;6.132;2024-02-28T09:08:01;3.20;91.60
48579;DHT22;34357;51.948;6.132;2024-02-28T09:10:27;3.40;91.70
48579;DHT22;34357;51.948;6.132;2024-02-28T09:12:54;3.40;91.70
48579;DHT22;34357;51.948;6.132;2024-02-28T09:15:20;3.60;91.80
48579;DHT22;34357;51.948;6.132;2024-02-28T09:17:45;3.70;91.70
48579;DHT22;34357;51.948;6.132;2024-02-28T09:20:11;3.90;91.40
48579;DHT22;34357;51.948;6.132;2024-02-28T09:22:38;3.90;90.70
48579;DHT22;34357;51.948;6.132;2024-02-28T09:25:06;3.80;90.60
48579;DHT22;34357;51.948;6.132;2024-02-28T09:27:34;3.90;90.70
48579;DHT22;34357;51.948;6.132;2024-02-28T09:30:01;3.90;90.60
48579;DHT22;34357;51.948;6.132;2024-02-28T09:32:26;3.90;90.30
48579;DHT22;34357;51.948;6.132;2024-02-28T09:34:52;3.90;90.20
48579;DHT22;34357;51.948;6.132;2024-02-28T09:37:18;4.10;90.00
48579;DHT22;34357;51.948;6.132;2024-02-28T09:39:46;4.00;89.80
48579;DHT22;34357;51.948;6.132;2024-02-28T09:42:12;4.30;89.70
48579;DHT22;34357;51.948;6.132;2024-02-28T09:44:40;4.20;89.20
48579;DHT22;34357;51.948;6.132;2024-02-28T09:47:06;4.10;89.30
48579;DHT22;34357;51.948;6.132;2024-02-28T09:49:32;4.00;89.60
48579;DHT22;34357;51.948;6.132;2024-02-28T09:51:59;4.20;90.00
48579;DHT22;34357;51.948;6.132;2024-02-28T09:54:25;4.40;90.10
48579;DHT22;34357;51.948;6.132;2024-02-28T09:56:51;4.70;89.90
48579;DHT22;34357;51.948;6.132;2024-02-28T09:59:21;4.80;89.40
48579;DHT22;34357;51.948;6.132;2024-02-28T10:01:55;5.00;88.40
48579;DHT22;34357;51.948;6.132;2024-02-28T10:04:21;5.30;88.40
48579;DHT22;34357;51.948;6.132;2024-02-28T10:06:47;5.40;87.80
48579;DHT22;34357;51.948;6.132;2024-02-28T10:09:15;5.60;87.20
48579;DHT22;34357;51.948;6.132;2024-02-28T10:11:41;5.80;87.10
48579;DHT22;34357;51.948;6.132;2024-02-28T10:14:09;5.80;86.50
48579;DHT22;34357;51.948;6.132;2024-02-28T10:16:35;5.70;86.10
48579;DHT22;34357;51.948;6.132;2024-02-28T10:19:01;5.50;87.00
48579;DHT22;34357;51.948;6.132;2024-02-28T10:21:26;5.50;87.50
48579;DHT22;34357;51.948;6.132;2024-02-28T10:23:52;5.40;87.60
48579;DHT22;34357;51.948;6.132;2024-02-28T10:26:18;5.40;88.40
48579;DHT22;34357;51.948;6.132;2024-02-28T10:28:43;5.60;87.60
48579;DHT22;34357;51.948;6.132;2024-02-28T10:31:10;5.60;87.60
48579;DHT22;34357;51.948;6.132;2024-02-28T10:33:36;5.80;87.60
48579;DHT22;34357;51.948;6.132;2024-02-28T10:36:05;6.00;87.60
48579;DHT22;34357;51.948;6.132;2024-02-28T10:38:32;5.90;86.90
48579;DHT22;34357;51.948;6.132;2024-02-28T10:41:05;6.00;87.10
48579;DHT22;34357;51.948;6.132;2024-02-28T10:43:31;6.20;87.00
48579;DHT22;34357;51.948;6.132;2024-02-28T10:45:57;6.40;86.60
48579;DHT22;34357;51.948;6.132;2024-02-28T10:48:27;6.40;86.30
48579;DHT22;34357;51.948;6.132;2024-02-28T10:50:53;6.40;86.20
48579;DHT22;34357;51.948;6.132;2024-02-28T10:53:42;6.40;86.70
48579;DHT22;34357;51.948;6.132;2024-02-28T10:56:11;6.70;86.60
48579;DHT22;34357;51.948;6.132;2024-02-28T10:58:49;6.50;86.10
48579;DHT22;34357;51.948;6.132;2024-02-28T11:01:16;6.60;86.60
48579;DHT22;34357;51.948;6.132;2024-02-28T11:03:42;6.70;86.10
48579;DHT22;34357;51.948;6.132;2024-02-28T11:06:17;6.70;86.20
48579;DHT22;34357;51.948;6.132;2024-02-28T11:08:46;6.90;86.20
48579;DHT22;34357;51.948;6.132;2024-02-28T11:11:14;6.90;85.50
48579;DHT22;34357;51.948;6.132;2024-02-28T11:13:40;6.90;85.90
48579;DHT22;34357;51.948;6.132;2024-02-28T11:16:09;6.70;85.80
48579;DHT22;34357;51.948;6.132;2024-02-28T11:18:35;6.60;86.60
48579;DHT22;34357;51.948;6.132;2024-02-28T11:21:01;6.70;86.70
48579;DHT22;34357;51.948;6.132;2024-02-28T11:23:36;6.80;86.60
48579;DHT22;34357;51.948;6.132;2024-02-28T11:26:03;6.80;86.50
48579;DHT22;34357;51.948;6.132;2024-02-28T11:28:29;6.80;86.60
48579;DHT22;34357;51.948;6.132;2024-02-28T11:30:55;6.80;86.70
48579;DHT22;34357;51.948;6.132;2024-02-28T11:33:21;6.70;86.60
48579;DHT22;34357;51.948;6.132;2024-02-28T11:35:59;6.60;86.90
48579;DHT22;34357;51.948;6.132;2024-02-28T11:38:28;6.80;87.60
48579;DHT22;34357;51.948;6.132;2024-02-28T11:40:54;6.90;87.20
48579;DHT22;34357;51.948;6.132;2024-02-28T11:43:21;7.00;87.30
48579;DHT22;34357;51.948;6.132;2024-02-28T11:45:47;7.10;87.00
48579;DHT22;34357;51.948;6.132;2024-02-28T11:48:14;7.00;87.20
48579;DHT22;34357;51.948;6.132;2024-02-28T11:50:40;7.20;87.20
48579;DHT22;34357;51.948;6.132;2024-02-28T11:53:06;7.20;87.00
48579;DHT22;34357;51.948;6.132;2024-02-28T11:55:33;7.00;86.90
48579;DHT22;34357;51.948;6.132;2024-02-28T11:57:58;7.10;87.30
48579;DHT22;34357;51.948;6.132;2024-02-28T12:00:24;6.90;87.40
48579;DHT22;34357;51.948;6.132;2024-02-28T12:02:50;7.10;87.70
48579;DHT22;34357;51.948;6.132;2024-02-28T12:05:16;7.20;87.40
48579;DHT22;34357;51.948;6.132;2024-02-28T12:07:42;7.30;87.00
48579;DHT22;34357;51.948;6.132;2024-02-28T12:10:09;7.40;87.00
48579;DHT22;34357;51.948;6.132;2024-02-28T12:12:41;7.20;86.90
48579;DHT22;34357;51.948;6.132;2024-02-28T12:15:07;7.20;87.30
48579;DHT22;34357;51.948;6.132;2024-02-28T12:17:35;7.30;87.30
48579;DHT22;34357;51.948;6.132;2024-02-28T12:20:01;7.40;87.20
48579;DHT22;34357;51.948;6.132;2024-02-28T12:22:27;7.40;86.60
48579;DHT22;34357;51.948;6.132;2024-02-28T12:24:53;7.50;87.10
48579;DHT22;34357;51.948;6.132;2024-02-28T12:27:19;7.50;86.80
48579;DHT22;34357;51.948;6.132;2024-02-28T12:29:45;7.60;86.80
48579;DHT22;34357;51.948;6.132;2024-02-28T12:32:10;7.60;86.70
48579;DHT22;34357;51.948;6.132;2024-02-28T12:34:37;7.60;86.70
48579;DHT22;34357;51.948;6.132;2024-02-28T12:37:03;7.60;86.40
48579;DHT22;34357;51.948;6.132;2024-02-28T12:39:30;7.60;86.70
48579;DHT22;34357;51.948;6.132;2024-02-28T12:42:00;7.80;86.80
48579;DHT22;34357;51.948;6.132;2024-02-28T12:44:25;7.90;86.30
48579;DHT22;34357;51.948;6.132;2024-02-28T12:46:51;8.00;85.90
48579;DHT22;34357;51.948;6.132;2024-02-28T12:49:17;7.90;85.80
48579;DHT22;34357;51.948;6.132;2024-02-28T12:51:44;7.70;86.40
48579;DHT22;34357;51.948;6.132;2024-02-28T12:54:11;7.80;86.50
48579;DHT22;34357;51.948;6.132;2024-02-28T12:56:38;7.80;86.20
48579;DHT22;34357;51.948;6.132;2024-02-28T12:59:05;7.70;86.30
48579;DHT22;34357;51.948;6.132;2024-02-28T13:01:32;7.70;86.60
48579;DHT22;34357;51.948;6.132;2024-02-28T13:03:59;7.90;87.00
48579;DHT22;34357;51.948;6.132;2024-02-28T13:06:25;8.10;86.20
48579;DHT22;34357;51.948;6.132;2024-02-28T13:08:51;8.20;85.90
48579;DHT22;34357;51.948;6.132;2024-02-28T13:11:21;7.90;85.50
48579;DHT22;34357;51.948;6.132;2024-02-28T13:13:48;7.90;86.00
48579;DHT22;34357;51.948;6.132;2024-02-28T13:16:18;8.00;86.00
48579;DHT22;34357;51.948;6.132;2024-02-28T13:18:44;7.90;85.80
48579;DHT22;34357;51.948;6.132;2024-02-28T13:21:10;8.00;86.20
48579;DHT22;34357;51.948;6.132;2024-02-28T13:23:36;7.90;85.80
48579;DHT22;34357;51.948;6.132;2024-02-28T13:26:06;7.80;86.00
48579;DHT22;34357;51.948;6.132;2024-02-28T13:28:33;7.80;86.10
48579;DHT22;34357;51.948;6.132;2024-02-28T13:31:02;7.80;86.30
48579;DHT22;34357;51.948;6.132;2024-02-28T13:33:29;7.80;86.50
48579;DHT22;34357;51.948;6.132;2024-02-28T13:35:55;7.90;86.20
48579;DHT22;34357;51.948;6.132;2024-02-28T13:38:21;7.90;85.80
48579;DHT22;34357;51.948;6.132;2024-02-28T13:40:48;7.90;86.20
48579;DHT22;34357;51.948;6.132;2024-02-28T13:43:14;8.00;86.10
48579;DHT22;34357;51.948;6.132;2024-02-28T13:45:40;8.00;85.50
48579;DHT22;34357;51.948;6.132;2024-02-28T13:48:19;8.00;86.00
48579;DHT22;34357;51.948;6.132;2024-02-28T13:50:51;7.90;86.00
48579;DHT22;34357;51.948;6.132;2024-02-28T13:53:17;7.80;86.30
48579;DHT22;34357;51.948;6.132;2024-02-28T13:55:44;7.70;86.30
48579;DHT22;34357;51.948;6.132;2024-02-28T13:58:14;7.50;86.40
48579;DHT22;34357;51.948;6.132;2024-02-28T14:00:44;7.60;86.60
48579;DHT22;34357;51.948;6.132;2024-02-28T14:03:13;7.60;86.50
48579;DHT22;34357;51.948;6.132;2024-02-28T14:05:39;7.50;86.80
48579;DHT22;34357;51.948;6.132;2024-02-28T14:08:05;7.60;86.90
48579;DHT22;34357;51.948;6.132;2024-02-28T14:10:34;7.70;87.10
48579;DHT22;34357;51.948;6.132;2024-02-28T14:13:00;7.70;87.00
48579;DHT22;34357;51.948;6.132;2024-02-28T14:15:25;7.80;86.70
48579;DHT22;34357;51.948;6.132;2024-02-28T14:17:51;7.70;86.70
48579;DHT22;34357;51.948;6.132;2024-02-28T14:20:17;7.60;86.70
48579;DHT22;34357;51.948;6.132;2024-02-28T14:22:43;7.60;86.80
48579;DHT22;34357;51.948;6.132;2024-02-28T14:25:11;7.60;86.70
48579;DHT22;34357;51.948;6.132;2024-02-28T14:27:42;7.60;86.70
48579;DHT22;34357;51.948;6.132;2024-02-28T14:30:09;7.70;86.70
48579;DHT22;34357;51.948;6.132;2024-02-28T14:32:36;7.70;86.70
48579;DHT22;34357;51.948;6.132;2024-02-28T14:35:11;7.80;86.90
48579;DHT22;34357;51.948;6.132;2024-02-28T14:37:38;7.80;86.70
48579;DHT22;34357;51.948;6.132;2024-02-28T14:40:07;7.80;86.50
48579;DHT22;34357;51.948;6.132;2024-02-28T14:42:37;7.90;86.40
48579;DHT22;34357;51.948;6.132;2024-02-28T14:45:07;7.80;86.50
48579;DHT22;34357;51.948;6.132;2024-02-28T14:47:33;7.70;86.50
48579;DHT22;34357;51.948;6.132;2024-02-28T14:50:02;7.80;86.70
48579;DHT22;34357;51.948;6.132;2024-02-28T14:52:27;7.80;86.70
48579;DHT22;34357;51.948;6.132;2024-02-28T14:54:53;7.80;86.60
48579;DHT22;34357;51.948;6.132;2024-02-28T14:57:19;7.70;86.30
48579;DHT22;34357;51.948;6.132;2024-02-28T14:59:45;7.70;86.50
48579;DHT22;34357;51.948;6.132;2024-02-28T15:02:11;7.80;86.70
48579;DHT22;34357;51.948;6.132;2024-02-28T15:04:38;7.70;86.70
48579;DHT22;34357;51.948;6.132;2024-02-28T15:07:04;7.70;87.00
48579;DHT22;34357;51.948;6.132;2024-02-28T15:09:30;7.70;86.90
48579;DHT22;34357;51.948;6.132;2024-02-28T15:11:55;7.80;87.00
48579;DHT22;34357;51.948;6.132;2024-02-28T15:14:24;7.80;86.90
48579;DHT22;34357;51.948;6.132;2024-02-28T15:16:51;8.00;86.90
48579;DHT22;34357;51.948;6.132;2024-02-28T15:19:19;8.10;86.40
48579;DHT22;34357;51.948;6.132;2024-02-28T15:21:45;8.10;85.90
48579;DHT22;34357;51.948;6.132;2024-02-28T15:24:11;8.10;86.10
48579;DHT22;34357;51.948;6.132;2024-02-28T15:26:38;8.10;86.00
48579;DHT22;34357;51.948;6.132;2024-02-28T15:29:03;8.10;85.80
48579;DHT22;34357;51.948;6.132;2024-02-28T15:31:29;8.10;85.70
48579;DHT22;34357;51.948;6.132;2024-02-28T15:33:55;8.00;85.80
48579;DHT22;34357;51.948;6.132;2024-02-28T15:36:21;8.20;85.90
48579;DHT22;34357;51.948;6.132;2024-02-28T15:38:47;8.10;85.90
48579;DHT22;34357;51.948;6.132;2024-02-28T15:41:12;8.10;85.90